createdAt,value
2019-01-12T15:36:37.961Z,47.00
2019-01-12T15:39:07.067Z,47.10
2019-01-12T15:45:05.699Z,47.20
2019-01-12T15:47:34.923Z,47.50
2019-01-12T15:50:04.787Z,47.20
2019-01-12T15:52:33.953Z,47.30
2019-01-12T15:55:03.174Z,47.40
2019-01-12T15:57:32.292Z,47.20
2019-01-12T16:00:01.396Z,47.20
2019-01-12T16:02:30.670Z,47.20
2019-01-12T16:04:59.947Z,47.30
2019-01-12T16:07:29.341Z,47.20
2019-01-12T16:09:58.565Z,47.40
2019-01-12T16:12:27.786Z,47.40
2019-01-12T16:14:56.967Z,47.00
2019-01-12T16:17:26.101Z,47.50
2019-01-12T16:19:55.414Z,47.70
2019-01-12T16:22:24.653Z,47.50
2019-01-12T16:24:53.984Z,47.50
2019-01-12T16:27:25.811Z,47.30
2019-01-12T16:29:55.037Z,47.60
2019-01-12T16:32:24.539Z,47.50
2019-01-12T16:34:53.729Z,47.90
2019-01-12T16:37:22.877Z,47.70
2019-01-12T16:39:52.030Z,48.00
2019-01-12T16:42:23.961Z,48.10
2019-01-12T16:44:53.201Z,48.30
2019-01-12T16:47:22.344Z,47.80
2019-01-12T16:49:51.521Z,47.80
2019-01-12T16:52:20.696Z,47.70
2019-01-12T16:58:15.260Z,34.20
2019-01-12T17:00:44.397Z,54.60
2019-01-12T17:03:13.538Z,63.00
2019-01-12T17:05:42.788Z,71.20
2019-01-12T17:08:11.890Z,72.60
2019-01-12T17:10:42.475Z,74.20
2019-01-12T17:13:11.736Z,77.40
2019-01-12T17:15:40.920Z,79.30
2019-01-12T17:18:10.328Z,79.30
2019-01-12T17:20:40.063Z,79.60
2019-01-12T17:23:09.168Z,79.90
2019-01-12T17:25:38.352Z,79.90
2019-01-12T17:28:07.559Z,80.20
2019-01-12T17:30:36.857Z,80.30
2019-01-12T17:33:06.008Z,80.50
2019-01-12T17:35:35.649Z,80.60
2019-01-12T17:38:05.824Z,80.70
2019-01-12T17:40:35.003Z,81.00
2019-01-12T17:43:04.281Z,81.30
2019-01-12T17:45:33.615Z,81.40
2019-01-12T17:48:02.826Z,81.40
2019-01-12T17:50:31.977Z,81.40
2019-01-12T17:53:01.292Z,81.50
2019-01-12T17:55:30.456Z,81.30
2019-01-12T17:57:59.587Z,81.50
2019-01-12T18:00:43.386Z,81.60
2019-01-12T18:03:12.597Z,82.50
2019-01-12T18:05:41.792Z,81.60
2019-01-12T18:08:10.898Z,81.90
2019-01-12T18:10:40.127Z,82.10
2019-01-12T18:13:10.158Z,82.20
2019-01-12T18:15:39.405Z,81.70
2019-01-12T18:18:08.643Z,81.50
2019-01-12T18:20:37.861Z,81.60
2019-01-12T18:23:07.358Z,80.80
2019-01-12T18:25:36.729Z,80.60
2019-01-12T18:28:05.927Z,80.90
2019-01-12T18:30:36.565Z,81.20
2019-01-12T18:33:05.821Z,80.80
2019-01-12T18:35:34.981Z,81.50
2019-01-12T18:38:04.146Z,80.90
2019-01-12T18:40:33.271Z,80.90
2019-01-12T18:43:02.618Z,81.20
2019-01-12T18:45:31.757Z,81.10
2019-01-12T18:48:03.572Z,80.90
2019-01-12T18:50:33.174Z,81.00
2019-01-12T18:53:02.378Z,81.00
2019-01-12T18:55:34.552Z,81.10
2019-01-12T18:58:03.882Z,81.20
2019-01-12T19:00:33.118Z,81.00
2019-01-12T19:03:02.310Z,80.90
2019-01-12T19:05:31.476Z,80.80
2019-01-12T19:08:03.394Z,80.80
2019-01-12T19:10:32.620Z,80.90
2019-01-12T19:13:01.741Z,81.00
2019-01-12T19:15:32.126Z,81.40
2019-01-12T19:18:01.335Z,80.90
2019-01-12T19:20:30.524Z,81.30
2019-01-12T19:23:00.209Z,82.00
2019-01-12T19:25:29.531Z,81.60
2019-01-12T19:27:58.633Z,81.20
2019-01-12T19:30:29.252Z,81.10
2019-01-12T19:32:58.949Z,81.10
2019-01-12T19:35:28.100Z,80.80
2019-01-12T19:37:57.297Z,80.80
2019-01-12T19:40:27.075Z,80.60
2019-01-12T19:42:56.517Z,80.60
2019-01-12T19:45:25.847Z,80.60
2019-01-12T19:47:55.910Z,80.60
2019-01-12T19:50:27.769Z,80.50
2019-01-12T19:52:57.617Z,80.40
2019-01-12T19:55:27.701Z,80.30
2019-01-12T19:58:01.490Z,80.50
2019-01-12T20:00:35.291Z,80.30
2019-01-12T20:03:04.842Z,80.20
2019-01-12T20:05:34.398Z,80.20
2019-01-12T20:08:03.653Z,80.30
2019-01-12T20:10:32.832Z,80.20
2019-01-12T20:13:02.281Z,80.30
2019-01-12T20:15:31.524Z,80.30
2019-01-12T20:18:00.807Z,80.30
2019-01-12T20:20:30.001Z,80.50
2019-01-12T20:22:59.500Z,80.50
2019-01-12T20:25:34.034Z,80.50
2019-01-12T20:28:12.064Z,80.30
2019-01-12T20:31:25.321Z,80.40
2019-01-12T20:34:26.570Z,80.60
2019-01-12T20:37:48.914Z,80.40
2019-01-12T20:40:49.869Z,80.50
2019-01-12T20:43:47.766Z,80.50
2019-01-12T20:46:26.738Z,80.90
2019-01-12T20:49:35.649Z,80.50
2019-01-12T20:52:32.367Z,80.60
2019-01-12T20:55:31.816Z,80.60
2019-01-12T20:58:45.254Z,80.50
2019-01-12T21:01:39.760Z,80.50
2019-01-12T21:04:51.570Z,80.50
2019-01-12T21:07:45.450Z,80.50
2019-01-12T21:10:38.364Z,80.50
2019-01-12T21:13:55.321Z,80.60
2019-01-12T21:16:37.163Z,80.70
2019-01-12T21:19:07.040Z,80.60
2019-01-12T21:21:37.262Z,80.80
2019-01-12T21:24:08.916Z,80.70
2019-01-12T21:26:38.607Z,80.90
2019-01-12T21:29:09.094Z,80.70
2019-01-12T21:31:39.795Z,80.80
2019-01-12T21:34:09.067Z,81.60
2019-01-12T21:36:39.728Z,80.70
2019-01-12T21:39:10.541Z,80.80
2019-01-12T21:41:41.384Z,80.60
2019-01-12T21:44:10.628Z,80.80
2019-01-12T21:46:39.872Z,80.70
2019-01-12T21:49:11.221Z,80.80
2019-01-12T21:51:41.706Z,80.60
2019-01-12T21:54:10.988Z,80.60
2019-01-12T21:56:41.748Z,80.70
2019-01-12T21:59:12.645Z,80.80
2019-01-12T22:01:42.893Z,80.80
2019-01-12T22:04:12.309Z,80.90
2019-01-12T22:06:41.539Z,80.90
2019-01-12T22:09:12.447Z,80.90
2019-01-12T22:11:42.395Z,81.00
2019-01-12T22:14:11.550Z,80.80
2019-01-12T22:16:41.898Z,80.90
2019-01-12T22:19:11.991Z,80.90
2019-01-12T22:21:42.194Z,80.80
2019-01-12T22:24:13.969Z,80.70
2019-01-12T22:26:43.152Z,80.50
2019-01-12T22:29:12.450Z,80.50
2019-01-12T22:31:42.698Z,80.50
2019-01-12T22:34:12.180Z,80.50
2019-01-12T22:36:41.305Z,80.30
2019-01-12T22:39:11.185Z,80.50
2019-01-12T22:41:41.186Z,80.50
2019-01-12T22:44:10.330Z,80.50
2019-01-12T22:46:39.568Z,80.30
2019-01-12T22:49:08.792Z,80.40
2019-01-12T22:51:39.196Z,80.50
2019-01-12T22:54:09.570Z,80.40
2019-01-12T22:56:39.097Z,80.30
2019-01-12T22:59:08.351Z,80.50
2019-01-12T23:01:47.887Z,80.60
2019-01-12T23:04:22.037Z,80.70
2019-01-12T23:06:51.146Z,80.80
2019-01-12T23:09:22.046Z,80.90
2019-01-12T23:11:51.412Z,80.90
2019-01-12T23:14:20.552Z,81.00
2019-01-12T23:16:49.674Z,81.00
2019-01-12T23:19:18.844Z,81.10
2019-01-12T23:21:47.932Z,81.40
2019-01-12T23:24:17.148Z,81.20
2019-01-12T23:26:46.245Z,81.20
2019-01-12T23:29:15.413Z,81.20
2019-01-12T23:31:44.552Z,81.20
2019-01-12T23:34:13.719Z,81.50
2019-01-12T23:36:42.812Z,81.60
2019-01-12T23:39:12.395Z,81.50
2019-01-12T23:41:41.576Z,81.70
2019-01-12T23:44:14.886Z,81.50
2019-01-12T23:46:41.522Z,81.50
2019-01-12T23:49:10.607Z,81.80
2019-01-12T23:51:39.692Z,82.00
2019-01-12T23:54:08.796Z,81.90
2019-01-12T23:58:16.144Z,81.90
